sensor_id;sensor_type;location;lat;lon;timestamp;P1;durP1;ratioP1;P2;durP2;ratioP2
70953;SDS011;58618;47.490;8.736;2022-07-03T00:00:27;6.38;;;4.78;;
70953;SDS011;58618;47.490;8.736;2022-07-03T00:03:14;5.70;;;4.88;;
70953;SDS011;58618;47.490;8.736;2022-07-03T00:06:02;6.50;;;4.63;;
70953;SDS011;58618;47.490;8.736;2022-07-03T00:08:49;6.20;;;4.90;;
70953;SDS011;58618;47.490;8.736;2022-07-03T00:11:38;5.60;;;4.78;;
70953;SDS011;58618;47.490;8.736;2022-07-03T00:14:25;5.55;;;4.93;;
70953;SDS011;58618;47.490;8.736;2022-07-03T00:17:13;6.15;;;4.80;;
70953;SDS011;58618;47.490;8.736;2022-07-03T00:20:00;6.10;;;4.85;;
70953;SDS011;58618;47.490;8.736;2022-07-03T00:22:48;5.20;;;4.50;;
70953;SDS011;58618;47.490;8.736;2022-07-03T00:25:37;6.72;;;5.35;;
70953;SDS011;58618;47.490;8.736;2022-07-03T00:28:28;5.18;;;4.50;;
70953;SDS011;58618;47.490;8.736;2022-07-03T00:31:15;6.10;;;4.70;;
70953;SDS011;58618;47.490;8.736;2022-07-03T00:34:03;5.28;;;4.40;;
70953;SDS011;58618;47.490;8.736;2022-07-03T00:36:55;5.60;;;4.80;;
70953;SDS011;58618;47.490;8.736;2022-07-03T00:39:44;6.10;;;4.60;;
70953;SDS011;58618;47.490;8.736;2022-07-03T00:42:32;6.80;;;5.22;;
70953;SDS011;58618;47.490;8.736;2022-07-03T00:45:26;5.72;;;4.93;;
70953;SDS011;58618;47.490;8.736;2022-07-03T00:48:13;6.35;;;5.18;;
70953;SDS011;58618;47.490;8.736;2022-07-03T00:51:01;5.33;;;4.60;;
70953;SDS011;58618;47.490;8.736;2022-07-03T00:53:53;5.45;;;4.65;;
70953;SDS011;58618;47.490;8.736;2022-07-03T00:56:42;5.60;;;5.00;;
70953;SDS011;58618;47.490;8.736;2022-07-03T00:59:36;6.50;;;5.30;;
70953;SDS011;58618;47.490;8.736;2022-07-03T01:02:29;6.20;;;5.05;;
70953;SDS011;58618;47.490;8.736;2022-07-03T01:05:26;6.13;;;5.47;;
70953;SDS011;58618;47.490;8.736;2022-07-03T01:08:19;6.35;;;5.30;;
70953;SDS011;58618;47.490;8.736;2022-07-03T01:11:14;5.35;;;4.85;;
70953;SDS011;58618;47.490;8.736;2022-07-03T01:14:14;7.95;;;6.05;;
70953;SDS011;58618;47.490;8.736;2022-07-03T01:17:09;6.78;;;5.80;;
70953;SDS011;58618;47.490;8.736;2022-07-03T01:20:07;6.00;;;5.37;;
70953;SDS011;58618;47.490;8.736;2022-07-03T01:22:55;6.85;;;5.68;;
70953;SDS011;58618;47.490;8.736;2022-07-03T01:25:48;6.68;;;5.30;;
70953;SDS011;58618;47.490;8.736;2022-07-03T01:28:36;8.85;;;5.20;;
70953;SDS011;58618;47.490;8.736;2022-07-03T01:31:30;6.38;;;5.15;;
70953;SDS011;58618;47.490;8.736;2022-07-03T01:34:18;6.50;;;4.90;;
70953;SDS011;58618;47.490;8.736;2022-07-03T01:37:07;9.57;;;5.40;;
70953;SDS011;58618;47.490;8.736;2022-07-03T01:39:57;6.60;;;5.13;;
70953;SDS011;58618;47.490;8.736;2022-07-03T01:42:46;10.35;;;4.97;;
70953;SDS011;58618;47.490;8.736;2022-07-03T01:45:37;7.07;;;4.97;;
70953;SDS011;58618;47.490;8.736;2022-07-03T01:48:35;9.57;;;5.20;;
70953;SDS011;58618;47.490;8.736;2022-07-03T01:51:23;6.60;;;5.35;;
70953;SDS011;58618;47.490;8.736;2022-07-03T01:54:12;5.78;;;4.97;;
70953;SDS011;58618;47.490;8.736;2022-07-03T01:57:00;9.45;;;6.32;;
70953;SDS011;58618;47.490;8.736;2022-07-03T01:59:53;6.63;;;5.60;;
70953;SDS011;58618;47.490;8.736;2022-07-03T02:02:50;9.23;;;5.40;;
70953;SDS011;58618;47.490;8.736;2022-07-03T02:05:43;7.70;;;5.72;;
70953;SDS011;58618;47.490;8.736;2022-07-03T02:08:36;7.65;;;5.82;;
70953;SDS011;58618;47.490;8.736;2022-07-03T02:11:32;9.90;;;5.95;;
70953;SDS011;58618;47.490;8.736;2022-07-03T02:14:23;6.05;;;5.28;;
70953;SDS011;58618;47.490;8.736;2022-07-03T02:17:14;6.20;;;4.90;;
70953;SDS011;58618;47.490;8.736;2022-07-03T02:20:04;5.78;;;5.18;;
70953;SDS011;58618;47.490;8.736;2022-07-03T02:22:56;5.20;;;4.70;;
70953;SDS011;58618;47.490;8.736;2022-07-03T02:25:44;6.63;;;5.20;;
70953;SDS011;58618;47.490;8.736;2022-07-03T02:28:41;7.47;;;5.43;;
70953;SDS011;58618;47.490;8.736;2022-07-03T02:31:45;6.87;;;5.47;;
70953;SDS011;58618;47.490;8.736;2022-07-03T02:34:45;7.53;;;5.45;;
70953;SDS011;58618;47.490;8.736;2022-07-03T02:37:38;8.25;;;5.40;;
70953;SDS011;58618;47.490;8.736;2022-07-03T02:40:31;7.60;;;5.38;;
70953;SDS011;58618;47.490;8.736;2022-07-03T02:43:26;5.65;;;5.05;;
70953;SDS011;58618;47.490;8.736;2022-07-03T02:46:23;5.47;;;4.87;;
70953;SDS011;58618;47.490;8.736;2022-07-03T02:49:46;5.68;;;5.07;;
70953;SDS011;58618;47.490;8.736;2022-07-03T02:52:54;6.05;;;5.43;;
70953;SDS011;58618;47.490;8.736;2022-07-03T02:55:50;7.10;;;5.68;;
70953;SDS011;58618;47.490;8.736;2022-07-03T02:58:44;6.88;;;5.65;;
70953;SDS011;58618;47.490;8.736;2022-07-03T03:01:46;6.33;;;5.67;;
70953;SDS011;58618;47.490;8.736;2022-07-03T03:04:35;8.10;;;5.50;;
70953;SDS011;58618;47.490;8.736;2022-07-03T03:07:33;7.35;;;5.65;;
70953;SDS011;58618;47.490;8.736;2022-07-03T03:10:22;7.05;;;5.30;;
70953;SDS011;58618;47.490;8.736;2022-07-03T03:13:09;7.28;;;5.60;;
70953;SDS011;58618;47.490;8.736;2022-07-03T03:16:04;7.77;;;5.80;;
70953;SDS011;58618;47.490;8.736;2022-07-03T03:18:52;7.05;;;5.60;;
70953;SDS011;58618;47.490;8.736;2022-07-03T03:21:42;6.25;;;5.15;;
70953;SDS011;58618;47.490;8.736;2022-07-03T03:24:40;6.47;;;5.18;;
70953;SDS011;58618;47.490;8.736;2022-07-03T03:27:27;5.40;;;4.90;;
70953;SDS011;58618;47.490;8.736;2022-07-03T03:30:15;5.87;;;5.27;;
70953;SDS011;58618;47.490;8.736;2022-07-03T03:33:03;6.57;;;5.28;;
70953;SDS011;58618;47.490;8.736;2022-07-03T03:35:52;6.68;;;5.22;;
70953;SDS011;58618;47.490;8.736;2022-07-03T03:38:40;7.60;;;5.10;;
70953;SDS011;58618;47.490;8.736;2022-07-03T03:41:29;5.88;;;4.95;;
70953;SDS011;58618;47.490;8.736;2022-07-03T03:44:17;5.70;;;5.07;;
70953;SDS011;58618;47.490;8.736;2022-07-03T03:47:04;6.07;;;5.20;;
70953;SDS011;58618;47.490;8.736;2022-07-03T03:49:52;5.95;;;4.95;;
70953;SDS011;58618;47.490;8.736;2022-07-03T03:52:39;8.77;;;5.22;;
70953;SDS011;58618;47.490;8.736;2022-07-03T03:55:26;7.95;;;5.78;;
70953;SDS011;58618;47.490;8.736;2022-07-03T03:58:15;6.77;;;5.50;;
70953;SDS011;58618;47.490;8.736;2022-07-03T04:01:03;5.82;;;5.03;;
70953;SDS011;58618;47.490;8.736;2022-07-03T04:03:52;6.82;;;5.20;;
70953;SDS011;58618;47.490;8.736;2022-07-03T04:06:39;7.00;;;4.95;;
70953;SDS011;58618;47.490;8.736;2022-07-03T04:09:27;6.05;;;5.05;;
70953;SDS011;58618;47.490;8.736;2022-07-03T04:12:14;7.10;;;4.47;;
70953;SDS011;58618;47.490;8.736;2022-07-03T04:15:03;6.32;;;4.47;;
70953;SDS011;58618;47.490;8.736;2022-07-03T04:17:51;4.25;;;3.80;;
70953;SDS011;58618;47.490;8.736;2022-07-03T04:20:39;4.18;;;3.78;;
70953;SDS011;58618;47.490;8.736;2022-07-03T04:23:26;6.88;;;4.05;;
70953;SDS011;58618;47.490;8.736;2022-07-03T04:26:14;4.83;;;3.70;;
70953;SDS011;58618;47.490;8.736;2022-07-03T04:29:01;5.25;;;4.10;;
70953;SDS011;58618;47.490;8.736;2022-07-03T04:31:50;5.38;;;3.83;;
70953;SDS011;58618;47.490;8.736;2022-07-03T04:34:37;5.78;;;3.33;;
70953;SDS011;58618;47.490;8.736;2022-07-03T04:37:24;3.25;;;2.92;;
70953;SDS011;58618;47.490;8.736;2022-07-03T04:40:12;3.63;;;3.20;;
70953;SDS011;58618;47.490;8.736;2022-07-03T04:43:00;4.75;;;3.40;;
70953;SDS011;58618;47.490;8.736;2022-07-03T04:45:47;5.93;;;3.10;;
70953;SDS011;58618;47.490;8.736;2022-07-03T04:48:36;4.72;;;3.20;;
70953;SDS011;58618;47.490;8.736;2022-07-03T04:51:23;3.42;;;3.00;;
70953;SDS011;58618;47.490;8.736;2022-07-03T04:54:10;3.53;;;2.90;;
70953;SDS011;58618;47.490;8.736;2022-07-03T04:56:58;4.32;;;3.45;;
70953;SDS011;58618;47.490;8.736;2022-07-03T04:59:45;5.13;;;3.17;;
70953;SDS011;58618;47.490;8.736;2022-07-03T05:02:33;5.32;;;2.90;;
70953;SDS011;58618;47.490;8.736;2022-07-03T05:05:22;5.30;;;3.10;;
70953;SDS011;58618;47.490;8.736;2022-07-03T05:08:09;2.93;;;2.60;;
70953;SDS011;58618;47.490;8.736;2022-07-03T05:10:57;3.65;;;2.60;;
70953;SDS011;58618;47.490;8.736;2022-07-03T05:13:45;3.10;;;2.80;;
70953;SDS011;58618;47.490;8.736;2022-07-03T05:16:33;3.35;;;2.80;;
70953;SDS011;58618;47.490;8.736;2022-07-03T05:19:20;2.92;;;2.63;;
70953;SDS011;58618;47.490;8.736;2022-07-03T05:22:09;3.77;;;2.70;;
70953;SDS011;58618;47.490;8.736;2022-07-03T05:24:56;4.57;;;2.85;;
70953;SDS011;58618;47.490;8.736;2022-07-03T05:27:44;4.15;;;2.40;;
70953;SDS011;58618;47.490;8.736;2022-07-03T05:30:31;4.10;;;2.72;;
70953;SDS011;58618;47.490;8.736;2022-07-03T05:33:19;4.00;;;2.70;;
70953;SDS011;58618;47.490;8.736;2022-07-03T05:36:06;3.47;;;2.60;;
70953;SDS011;58618;47.490;8.736;2022-07-03T05:38:55;4.35;;;2.63;;
70953;SDS011;58618;47.490;8.736;2022-07-03T05:42:00;5.65;;;2.60;;
70953;SDS011;58618;47.490;8.736;2022-07-03T05:44:48;3.92;;;2.40;;
70953;SDS011;58618;47.490;8.736;2022-07-03T05:47:35;2.90;;;2.40;;
70953;SDS011;58618;47.490;8.736;2022-07-03T05:50:23;2.93;;;2.40;;
70953;SDS011;58618;47.490;8.736;2022-07-03T05:53:10;4.03;;;2.40;;
70953;SDS011;58618;47.490;8.736;2022-07-03T05:55:59;3.35;;;2.30;;
70953;SDS011;58618;47.490;8.736;2022-07-03T05:58:46;3.35;;;1.90;;
70953;SDS011;58618;47.490;8.736;2022-07-03T06:01:34;3.08;;;2.00;;
70953;SDS011;58618;47.490;8.736;2022-07-03T06:04:21;4.47;;;2.10;;
70953;SDS011;58618;47.490;8.736;2022-07-03T06:07:08;2.45;;;2.25;;
70953;SDS011;58618;47.490;8.736;2022-07-03T06:09:56;3.08;;;1.90;;
70953;SDS011;58618;47.490;8.736;2022-07-03T06:12:44;4.15;;;2.00;;
70953;SDS011;58618;47.490;8.736;2022-07-03T06:15:32;2.33;;;1.92;;
70953;SDS011;58618;47.490;8.736;2022-07-03T06:18:19;2.73;;;1.67;;
70953;SDS011;58618;47.490;8.736;2022-07-03T06:21:06;2.63;;;1.77;;
70953;SDS011;58618;47.490;8.736;2022-07-03T06:23:54;3.08;;;1.60;;
70953;SDS011;58618;47.490;8.736;2022-07-03T06:26:41;1.88;;;1.75;;
70953;SDS011;58618;47.490;8.736;2022-07-03T06:29:30;2.00;;;1.70;;
70953;SDS011;58618;47.490;8.736;2022-07-03T06:32:17;3.10;;;1.93;;
70953;SDS011;58618;47.490;8.736;2022-07-03T06:35:05;2.50;;;1.83;;
70953;SDS011;58618;47.490;8.736;2022-07-03T06:37:53;4.15;;;2.00;;
70953;SDS011;58618;47.490;8.736;2022-07-03T06:40:40;4.25;;;2.00;;
70953;SDS011;58618;47.490;8.736;2022-07-03T06:43:28;2.53;;;2.00;;
70953;SDS011;58618;47.490;8.736;2022-07-03T06:46:16;2.10;;;1.80;;
70953;SDS011;58618;47.490;8.736;2022-07-03T06:49:03;3.08;;;2.00;;
70953;SDS011;58618;47.490;8.736;2022-07-03T06:51:51;3.60;;;1.95;;
70953;SDS011;58618;47.490;8.736;2022-07-03T06:54:38;2.28;;;1.70;;
70953;SDS011;58618;47.490;8.736;2022-07-03T06:57:29;3.08;;;1.98;;
70953;SDS011;58618;47.490;8.736;2022-07-03T07:00:17;2.67;;;2.00;;
70953;SDS011;58618;47.490;8.736;2022-07-03T07:03:05;2.08;;;1.75;;
70953;SDS011;58618;47.490;8.736;2022-07-03T07:05:53;2.67;;;1.95;;
70953;SDS011;58618;47.490;8.736;2022-07-03T07:08:40;3.78;;;2.13;;
70953;SDS011;58618;47.490;8.736;2022-07-03T07:11:27;3.33;;;2.00;;
70953;SDS011;58618;47.490;8.736;2022-07-03T07:14:15;2.50;;;1.80;;
70953;SDS011;58618;47.490;8.736;2022-07-03T07:17:02;2.00;;;1.50;;
70953;SDS011;58618;47.490;8.736;2022-07-03T07:19:51;2.85;;;1.90;;
70953;SDS011;58618;47.490;8.736;2022-07-03T07:22:38;2.20;;;1.90;;
70953;SDS011;58618;47.490;8.736;2022-07-03T07:25:26;3.65;;;1.70;;
70953;SDS011;58618;47.490;8.736;2022-07-03T07:28:13;1.80;;;1.60;;
70953;SDS011;58618;47.490;8.736;2022-07-03T07:31:00;3.40;;;1.30;;
70953;SDS011;58618;47.490;8.736;2022-07-03T07:33:48;1.50;;;1.35;;
70953;SDS011;58618;47.490;8.736;2022-07-03T07:36:37;1.83;;;1.30;;
70953;SDS011;58618;47.490;8.736;2022-07-03T07:39:24;2.05;;;1.27;;
70953;SDS011;58618;47.490;8.736;2022-07-03T07:42:11;1.77;;;1.20;;
70953;SDS011;58618;47.490;8.736;2022-07-03T07:44:59;1.73;;;1.40;;
70953;SDS011;58618;47.490;8.736;2022-07-03T07:47:46;1.83;;;1.30;;
70953;SDS011;58618;47.490;8.736;2022-07-03T07:50:33;1.73;;;1.30;;
70953;SDS011;58618;47.490;8.736;2022-07-03T07:53:22;2.08;;;1.45;;
70953;SDS011;58618;47.490;8.736;2022-07-03T07:56:09;2.10;;;1.50;;
70953;SDS011;58618;47.490;8.736;2022-07-03T07:58:57;2.15;;;1.40;;
70953;SDS011;58618;47.490;8.736;2022-07-03T08:01:44;1.50;;;1.23;;
70953;SDS011;58618;47.490;8.736;2022-07-03T08:04:49;1.30;;;1.20;;
70953;SDS011;58618;47.490;8.736;2022-07-03T08:07:54;1.75;;;1.27;;
70953;SDS011;58618;47.490;8.736;2022-07-03T08:10:43;1.87;;;1.30;;
70953;SDS011;58618;47.490;8.736;2022-07-03T08:13:31;3.55;;;1.42;;
70953;SDS011;58618;47.490;8.736;2022-07-03T08:16:19;2.42;;;1.45;;
70953;SDS011;58618;47.490;8.736;2022-07-03T08:19:06;1.38;;;1.27;;
70953;SDS011;58618;47.490;8.736;2022-07-03T08:21:53;1.65;;;1.30;;
70953;SDS011;58618;47.490;8.736;2022-07-03T08:24:41;2.67;;;1.20;;
70953;SDS011;58618;47.490;8.736;2022-07-03T08:27:29;4.97;;;1.30;;
70953;SDS011;58618;47.490;8.736;2022-07-03T08:30:18;1.48;;;1.20;;
70953;SDS011;58618;47.490;8.736;2022-07-03T08:33:06;2.78;;;0.98;;
70953;SDS011;58618;47.490;8.736;2022-07-03T08:35:53;1.65;;;1.10;;
70953;SDS011;58618;47.490;8.736;2022-07-03T08:38:41;1.63;;;1.20;;
70953;SDS011;58618;47.490;8.736;2022-07-03T08:41:28;1.65;;;1.20;;
70953;SDS011;58618;47.490;8.736;2022-07-03T08:44:21;2.70;;;1.20;;
70953;SDS011;58618;47.490;8.736;2022-07-03T08:47:11;1.20;;;1.10;;
70953;SDS011;58618;47.490;8.736;2022-07-03T08:50:00;1.27;;;1.00;;
70953;SDS011;58618;47.490;8.736;2022-07-03T08:52:48;5.30;;;1.20;;
70953;SDS011;58618;47.490;8.736;2022-07-03T08:55:35;1.92;;;1.17;;
70953;SDS011;58618;47.490;8.736;2022-07-03T08:58:23;1.30;;;1.00;;
70953;SDS011;58618;47.490;8.736;2022-07-03T09:01:12;1.88;;;0.93;;
70953;SDS011;58618;47.490;8.736;2022-07-03T09:04:02;2.53;;;1.10;;
70953;SDS011;58618;47.490;8.736;2022-07-03T09:06:50;1.57;;;1.10;;
70953;SDS011;58618;47.490;8.736;2022-07-03T09:09:38;1.30;;;1.00;;
70953;SDS011;58618;47.490;8.736;2022-07-03T09:12:26;1.52;;;0.98;;
70953;SDS011;58618;47.490;8.736;2022-07-03T09:15:17;1.92;;;1.13;;
70953;SDS011;58618;47.490;8.736;2022-07-03T09:18:06;1.45;;;1.20;;
70953;SDS011;58618;47.490;8.736;2022-07-03T09:21:01;1.77;;;1.20;;
70953;SDS011;58618;47.490;8.736;2022-07-03T09:23:49;1.42;;;1.00;;
70953;SDS011;58618;47.490;8.736;2022-07-03T09:26:36;1.42;;;1.15;;
70953;SDS011;58618;47.490;8.736;2022-07-03T09:29:36;1.52;;;1.05;;
70953;SDS011;58618;47.490;8.736;2022-07-03T09:32:44;5.18;;;1.50;;
70953;SDS011;58618;47.490;8.736;2022-07-03T09:35:33;1.43;;;0.93;;
70953;SDS011;58618;47.490;8.736;2022-07-03T09:38:21;1.38;;;1.10;;
70953;SDS011;58618;47.490;8.736;2022-07-03T09:41:09;1.38;;;1.00;;
70953;SDS011;58618;47.490;8.736;2022-07-03T09:43:57;2.45;;;1.00;;
70953;SDS011;58618;47.490;8.736;2022-07-03T09:46:44;1.63;;;0.95;;
70953;SDS011;58618;47.490;8.736;2022-07-03T09:49:39;2.27;;;1.00;;
70953;SDS011;58618;47.490;8.736;2022-07-03T09:52:36;1.50;;;1.20;;
70953;SDS011;58618;47.490;8.736;2022-07-03T09:55:24;1.63;;;0.80;;
70953;SDS011;58618;47.490;8.736;2022-07-03T09:58:11;2.53;;;1.05;;
70953;SDS011;58618;47.490;8.736;2022-07-03T10:04:08;1.20;;;1.00;;
70953;SDS011;58618;47.490;8.736;2022-07-03T10:06:57;4.13;;;0.90;;
70953;SDS011;58618;47.490;8.736;2022-07-03T10:09:47;1.10;;;1.00;;
70953;SDS011;58618;47.490;8.736;2022-07-03T10:12:35;1.42;;;1.10;;
70953;SDS011;58618;47.490;8.736;2022-07-03T10:15:23;2.03;;;1.10;;
70953;SDS011;58618;47.490;8.736;2022-07-03T10:18:11;1.10;;;0.90;;
70953;SDS011;58618;47.490;8.736;2022-07-03T10:21:00;2.58;;;1.00;;
70953;SDS011;58618;47.490;8.736;2022-07-03T10:23:51;1.00;;;0.80;;
70953;SDS011;58618;47.490;8.736;2022-07-03T10:26:40;1.10;;;1.00;;
70953;SDS011;58618;47.490;8.736;2022-07-03T10:29:28;1.17;;;0.90;;
70953;SDS011;58618;47.490;8.736;2022-07-03T10:32:16;4.13;;;1.17;;
70953;SDS011;58618;47.490;8.736;2022-07-03T10:35:04;1.75;;;1.10;;
70953;SDS011;58618;47.490;8.736;2022-07-03T10:41:04;1.65;;;1.00;;
70953;SDS011;58618;47.490;8.736;2022-07-03T10:44:15;1.85;;;1.10;;
70953;SDS011;58618;47.490;8.736;2022-07-03T10:47:41;1.57;;;1.17;;
70953;SDS011;58618;47.490;8.736;2022-07-03T10:50:30;1.40;;;1.00;;
70953;SDS011;58618;47.490;8.736;2022-07-03T10:53:22;2.03;;;1.30;;
70953;SDS011;58618;47.490;8.736;2022-07-03T10:56:11;3.40;;;1.27;;
70953;SDS011;58618;47.490;8.736;2022-07-03T10:58:59;1.45;;;1.02;;
70953;SDS011;58618;47.490;8.736;2022-07-03T11:01:50;1.30;;;1.10;;
70953;SDS011;58618;47.490;8.736;2022-07-03T11:05:06;1.42;;;1.10;;
70953;SDS011;58618;47.490;8.736;2022-07-03T11:11:04;2.67;;;1.20;;
70953;SDS011;58618;47.490;8.736;2022-07-03T11:14:38;1.85;;;1.17;;
70953;SDS011;58618;47.490;8.736;2022-07-03T11:17:27;2.67;;;1.10;;
70953;SDS011;58618;47.490;8.736;2022-07-03T11:20:24;2.22;;;1.13;;
70953;SDS011;58618;47.490;8.736;2022-07-03T11:23:13;1.73;;;1.17;;
70953;SDS011;58618;47.490;8.736;2022-07-03T11:26:18;1.70;;;1.08;;
70953;SDS011;58618;47.490;8.736;2022-07-03T11:38:51;3.55;;;1.52;;
70953;SDS011;58618;47.490;8.736;2022-07-03T11:41:59;3.42;;;1.40;;
70953;SDS011;58618;47.490;8.736;2022-07-03T11:44:47;3.13;;;1.60;;
70953;SDS011;58618;47.490;8.736;2022-07-03T11:47:34;1.53;;;1.43;;
70953;SDS011;58618;47.490;8.736;2022-07-03T11:50:36;3.25;;;1.50;;
70953;SDS011;58618;47.490;8.736;2022-07-03T11:53:25;3.05;;;1.25;;
70953;SDS011;58618;47.490;8.736;2022-07-03T11:56:15;3.70;;;1.50;;
70953;SDS011;58618;47.490;8.736;2022-07-03T11:59:03;2.30;;;1.52;;
70953;SDS011;58618;47.490;8.736;2022-07-03T12:01:52;2.60;;;1.37;;
70953;SDS011;58618;47.490;8.736;2022-07-03T12:04:48;3.20;;;1.48;;
70953;SDS011;58618;47.490;8.736;2022-07-03T12:07:40;2.08;;;1.40;;
70953;SDS011;58618;47.490;8.736;2022-07-03T12:10:35;2.05;;;1.40;;
70953;SDS011;58618;47.490;8.736;2022-07-03T12:13:24;2.30;;;1.67;;
70953;SDS011;58618;47.490;8.736;2022-07-03T12:16:12;1.50;;;1.40;;
70953;SDS011;58618;47.490;8.736;2022-07-03T12:19:04;2.13;;;1.50;;
70953;SDS011;58618;47.490;8.736;2022-07-03T12:21:52;3.58;;;1.40;;
70953;SDS011;58618;47.490;8.736;2022-07-03T12:24:41;2.22;;;1.60;;
70953;SDS011;58618;47.490;8.736;2022-07-03T12:27:28;2.42;;;1.70;;
70953;SDS011;58618;47.490;8.736;2022-07-03T12:30:17;1.63;;;1.40;;
70953;SDS011;58618;47.490;8.736;2022-07-03T12:33:08;3.45;;;1.60;;
70953;SDS011;58618;47.490;8.736;2022-07-03T12:36:01;4.00;;;1.90;;
70953;SDS011;58618;47.490;8.736;2022-07-03T12:38:51;3.78;;;1.65;;
70953;SDS011;58618;47.490;8.736;2022-07-03T12:41:40;3.47;;;1.70;;
70953;SDS011;58618;47.490;8.736;2022-07-03T12:44:28;2.80;;;1.70;;
70953;SDS011;58618;47.490;8.736;2022-07-03T12:47:16;3.00;;;1.85;;
70953;SDS011;58618;47.490;8.736;2022-07-03T12:50:04;2.92;;;1.55;;
70953;SDS011;58618;47.490;8.736;2022-07-03T12:52:53;4.07;;;1.70;;
70953;SDS011;58618;47.490;8.736;2022-07-03T12:55:44;3.28;;;1.70;;
70953;SDS011;58618;47.490;8.736;2022-07-03T12:58:35;3.53;;;1.63;;
70953;SDS011;58618;47.490;8.736;2022-07-03T13:01:42;2.33;;;1.80;;
70953;SDS011;58618;47.490;8.736;2022-07-03T13:04:31;3.70;;;2.35;;
70953;SDS011;58618;47.490;8.736;2022-07-03T13:07:19;2.85;;;2.10;;
70953;SDS011;58618;47.490;8.736;2022-07-03T13:10:07;2.95;;;1.90;;
70953;SDS011;58618;47.490;8.736;2022-07-03T13:12:57;2.90;;;1.53;;
70953;SDS011;58618;47.490;8.736;2022-07-03T13:15:46;3.15;;;1.70;;
70953;SDS011;58618;47.490;8.736;2022-07-03T13:18:34;4.03;;;1.85;;
70953;SDS011;58618;47.490;8.736;2022-07-03T13:21:21;2.90;;;2.00;;
70953;SDS011;58618;47.490;8.736;2022-07-03T13:24:08;1.80;;;1.58;;
70953;SDS011;58618;47.490;8.736;2022-07-03T13:26:57;2.17;;;1.97;;
70953;SDS011;58618;47.490;8.736;2022-07-03T13:29:44;4.47;;;1.92;;
70953;SDS011;58618;47.490;8.736;2022-07-03T13:32:33;3.38;;;1.90;;
70953;SDS011;58618;47.490;8.736;2022-07-03T13:35:21;3.10;;;2.05;;
70953;SDS011;58618;47.490;8.736;2022-07-03T13:38:08;2.50;;;1.90;;
70953;SDS011;58618;47.490;8.736;2022-07-03T13:40:55;2.60;;;1.77;;
70953;SDS011;58618;47.490;8.736;2022-07-03T13:43:42;2.50;;;1.92;;
70953;SDS011;58618;47.490;8.736;2022-07-03T13:46:30;1.92;;;1.73;;
70953;SDS011;58618;47.490;8.736;2022-07-03T13:49:19;2.00;;;1.80;;
70953;SDS011;58618;47.490;8.736;2022-07-03T13:52:06;2.90;;;1.95;;
70953;SDS011;58618;47.490;8.736;2022-07-03T13:54:54;3.10;;;1.80;;
70953;SDS011;58618;47.490;8.736;2022-07-03T13:57:41;6.65;;;2.75;;
70953;SDS011;58618;47.490;8.736;2022-07-03T14:00:28;2.50;;;1.92;;
70953;SDS011;58618;47.490;8.736;2022-07-03T14:03:15;2.30;;;1.80;;
70953;SDS011;58618;47.490;8.736;2022-07-03T14:06:04;2.92;;;2.10;;
70953;SDS011;58618;47.490;8.736;2022-07-03T14:08:52;3.30;;;1.80;;
70953;SDS011;58618;47.490;8.736;2022-07-03T14:11:40;3.20;;;1.90;;
70953;SDS011;58618;47.490;8.736;2022-07-03T14:14:27;2.42;;;1.80;;
70953;SDS011;58618;47.490;8.736;2022-07-03T14:17:14;3.70;;;2.05;;
70953;SDS011;58618;47.490;8.736;2022-07-03T14:20:04;2.60;;;2.00;;
70953;SDS011;58618;47.490;8.736;2022-07-03T14:22:54;2.47;;;2.10;;
70953;SDS011;58618;47.490;8.736;2022-07-03T14:25:41;2.67;;;1.90;;
70953;SDS011;58618;47.490;8.736;2022-07-03T14:28:28;2.20;;;1.80;;
70953;SDS011;58618;47.490;8.736;2022-07-03T14:31:33;2.78;;;1.73;;
70953;SDS011;58618;47.490;8.736;2022-07-03T14:34:38;3.08;;;2.00;;
70953;SDS011;58618;47.490;8.736;2022-07-03T14:37:26;5.27;;;1.97;;
70953;SDS011;58618;47.490;8.736;2022-07-03T14:40:15;2.40;;;1.90;;
70953;SDS011;58618;47.490;8.736;2022-07-03T14:43:02;2.55;;;1.73;;
70953;SDS011;58618;47.490;8.736;2022-07-03T14:45:50;3.00;;;1.85;;
70953;SDS011;58618;47.490;8.736;2022-07-03T14:48:37;2.10;;;1.55;;
70953;SDS011;58618;47.490;8.736;2022-07-03T14:51:24;3.63;;;2.00;;
70953;SDS011;58618;47.490;8.736;2022-07-03T14:54:12;3.92;;;1.80;;
70953;SDS011;58618;47.490;8.736;2022-07-03T14:57:06;2.80;;;1.95;;
70953;SDS011;58618;47.490;8.736;2022-07-03T15:00:06;3.65;;;1.90;;
70953;SDS011;58618;47.490;8.736;2022-07-03T15:03:00;2.58;;;1.80;;
70953;SDS011;58618;47.490;8.736;2022-07-03T15:05:50;2.53;;;1.60;;
70953;SDS011;58618;47.490;8.736;2022-07-03T15:08:48;2.13;;;1.80;;
70953;SDS011;58618;47.490;8.736;2022-07-03T15:11:47;3.25;;;1.77;;
70953;SDS011;58618;47.490;8.736;2022-07-03T15:14:58;3.60;;;1.70;;
70953;SDS011;58618;47.490;8.736;2022-07-03T15:17:46;2.70;;;1.88;;
70953;SDS011;58618;47.490;8.736;2022-07-03T15:20:36;2.10;;;1.70;;
70953;SDS011;58618;47.490;8.736;2022-07-03T15:23:24;3.65;;;1.80;;
70953;SDS011;58618;47.490;8.736;2022-07-03T15:26:13;3.17;;;2.10;;
70953;SDS011;58618;47.490;8.736;2022-07-03T15:29:02;2.80;;;1.90;;
70953;SDS011;58618;47.490;8.736;2022-07-03T15:31:52;3.60;;;1.80;;
70953;SDS011;58618;47.490;8.736;2022-07-03T15:34:41;3.83;;;2.20;;
70953;SDS011;58618;47.490;8.736;2022-07-03T15:37:34;2.28;;;1.60;;
70953;SDS011;58618;47.490;8.736;2022-07-03T15:40:28;1.98;;;1.75;;
70953;SDS011;58618;47.490;8.736;2022-07-03T15:43:36;3.60;;;1.80;;
70953;SDS011;58618;47.490;8.736;2022-07-03T15:46:36;2.67;;;1.92;;
70953;SDS011;58618;47.490;8.736;2022-07-03T15:49:29;6.03;;;4.43;;
70953;SDS011;58618;47.490;8.736;2022-07-03T15:52:18;4.00;;;2.90;;
70953;SDS011;58618;47.490;8.736;2022-07-03T15:55:07;6.43;;;2.60;;
70953;SDS011;58618;47.490;8.736;2022-07-03T15:57:57;3.88;;;2.50;;
70953;SDS011;58618;47.490;8.736;2022-07-03T16:00:48;4.03;;;2.22;;
70953;SDS011;58618;47.490;8.736;2022-07-03T16:03:58;6.40;;;3.77;;
70953;SDS011;58618;47.490;8.736;2022-07-03T16:06:50;4.20;;;2.80;;
70953;SDS011;58618;47.490;8.736;2022-07-03T16:09:39;6.32;;;2.50;;
70953;SDS011;58618;47.490;8.736;2022-07-03T16:12:27;6.05;;;3.15;;
70953;SDS011;58618;47.490;8.736;2022-07-03T16:15:15;10.10;;;5.97;;
70953;SDS011;58618;47.490;8.736;2022-07-03T16:18:03;19.23;;;16.30;;
70953;SDS011;58618;47.490;8.736;2022-07-03T16:20:52;7.15;;;5.47;;
70953;SDS011;58618;47.490;8.736;2022-07-03T16:23:43;4.35;;;2.88;;
70953;SDS011;58618;47.490;8.736;2022-07-03T16:26:30;5.40;;;2.30;;
70953;SDS011;58618;47.490;8.736;2022-07-03T16:29:20;6.10;;;2.50;;
70953;SDS011;58618;47.490;8.736;2022-07-03T16:32:10;3.03;;;2.37;;
70953;SDS011;58618;47.490;8.736;2022-07-03T16:35:00;2.70;;;2.50;;
70953;SDS011;58618;47.490;8.736;2022-07-03T16:37:51;3.63;;;2.90;;
70953;SDS011;58618;47.490;8.736;2022-07-03T16:40:43;2.58;;;2.30;;
70953;SDS011;58618;47.490;8.736;2022-07-03T16:43:32;2.95;;;2.20;;
70953;SDS011;58618;47.490;8.736;2022-07-03T16:46:25;3.47;;;2.10;;
70953;SDS011;58618;47.490;8.736;2022-07-03T16:49:14;3.10;;;2.50;;
70953;SDS011;58618;47.490;8.736;2022-07-03T16:52:09;5.68;;;2.50;;
70953;SDS011;58618;47.490;8.736;2022-07-03T16:54:58;3.10;;;2.40;;
70953;SDS011;58618;47.490;8.736;2022-07-03T16:57:49;3.65;;;2.45;;
70953;SDS011;58618;47.490;8.736;2022-07-03T17:00:38;4.60;;;2.30;;
70953;SDS011;58618;47.490;8.736;2022-07-03T17:03:28;3.00;;;2.40;;
70953;SDS011;58618;47.490;8.736;2022-07-03T17:06:18;3.38;;;2.10;;
70953;SDS011;58618;47.490;8.736;2022-07-03T17:09:07;3.05;;;2.38;;
70953;SDS011;58618;47.490;8.736;2022-07-03T17:11:58;2.88;;;2.47;;
70953;SDS011;58618;47.490;8.736;2022-07-03T17:14:47;3.53;;;2.20;;
70953;SDS011;58618;47.490;8.736;2022-07-03T17:17:34;2.95;;;2.30;;
70953;SDS011;58618;47.490;8.736;2022-07-03T17:20:22;2.85;;;2.05;;
70953;SDS011;58618;47.490;8.736;2022-07-03T17:23:12;3.60;;;2.45;;
70953;SDS011;58618;47.490;8.736;2022-07-03T17:26:02;3.85;;;2.40;;